Time,TemperatureF,DewpointF,PressureIn,WindDirection,WindDirectionDegrees,WindSpeedMPH,WindSpeedGustMPH,Humidity,HourlyPrecipIn,Conditions,Clouds,dailyrainin,SoftwareType,DateUTC
2013-01-27 00:00:00,23.6,19.5,30.43,NNW,346,0.0,0.0,84,0.00,,,0.01,Wunderground v.1.15,2013-01-27 05:00:00,
2013-01-27 00:05:00,23.5,19.4,30.43,NNW,346,0.0,0.0,84,0.00,,,0.01,Wunderground v.1.15,2013-01-27 05:05:00,
2013-01-27 00:10:00,23.4,19.3,30.43,NNW,346,0.0,0.0,84,0.00,,,0.01,Wunderground v.1.15,2013-01-27 05:10:00,
2013-01-27 00:14:00,23.3,19.2,30.43,NNW,346,0.0,0.0,84,0.00,,,0.01,Wunderground v.1.15,2013-01-27 05:14:00,
2013-01-27 00:19:00,23.2,19.1,30.43,NNW,346,0.0,0.0,84,0.00,,,0.01,Wunderground v.1.15,2013-01-27 05:19:00,
2013-01-27 00:25:00,23.1,19.3,30.44,NNW,346,0.0,0.0,85,0.00,,,0.01,Wunderground v.1.15,2013-01-27 05:25:00,
2013-01-27 00:30:00,23.3,19.5,30.44,NNW,346,0.0,0.0,85,0.00,,,0.01,Wunderground v.1.15,2013-01-27 05:30:00,
2013-01-27 00:35:00,23.2,19.4,30.44,NNW,346,0.0,0.0,85,0.00,,,0.01,Wunderground v.1.15,2013-01-27 05:35:00,
2013-01-27 00:40:00,23.1,19.3,30.44,NNW,346,0.0,0.0,85,0.00,,,0.01,Wunderground v.1.15,2013-01-27 05:40:00,
2013-01-27 00:45:00,23.1,19.3,30.45,NNW,346,0.0,0.0,85,0.00,,,0.01,Wunderground v.1.15,2013-01-27 05:45:00,
2013-01-27 00:50:00,23.1,19.5,30.45,NNW,346,0.0,0.0,86,0.00,,,0.01,Wunderground v.1.15,2013-01-27 05:50:00,
2013-01-27 00:55:00,23.3,19.7,30.45,NNW,346,0.0,0.0,86,0.00,,,0.01,Wunderground v.1.15,2013-01-27 05:55:00,
2013-01-27 01:05:00,23.8,20.5,30.44,NNW,346,0.0,0.0,87,0.00,,,0.01,Wunderground v.1.15,2013-01-27 06:05:00,
2013-01-27 01:10:00,23.5,19.9,30.44,NNW,346,0.0,0.0,86,0.00,,,0.01,Wunderground v.1.15,2013-01-27 06:10:00,
2013-01-27 01:15:00,23.3,19.7,30.44,NNW,346,0.0,0.0,86,0.00,,,0.01,Wunderground v.1.15,2013-01-27 06:15:00,
2013-01-27 01:20:00,23.2,19.6,30.45,NNW,346,0.0,1.0,86,0.00,,,0.01,Wunderground v.1.15,2013-01-27 06:20:00,
2013-01-27 01:25:00,23.4,20.1,30.45,NNW,346,0.0,1.0,87,0.00,,,0.01,Wunderground v.1.15,2013-01-27 06:25:00,
2013-01-27 01:30:00,23.8,20.5,30.45,North,353,0.0,0.0,87,0.00,,,0.01,Wunderground v.1.15,2013-01-27 06:30:00,
2013-01-27 01:40:00,24.1,20.8,30.46,North,353,0.0,0.0,87,0.00,,,0.01,Wunderground v.1.15,2013-01-27 06:40:00,
2013-01-27 01:45:00,24.0,20.4,30.46,North,353,0.0,0.0,86,0.00,,,0.01,Wunderground v.1.15,2013-01-27 06:45:00,
2013-01-27 01:50:00,23.8,20.2,30.46,North,353,0.0,0.0,86,0.00,,,0.01,Wunderground v.1.15,2013-01-27 06:50:00,
2013-01-27 01:55:00,23.8,19.9,30.46,North,353,0.0,0.0,85,0.00,,,0.01,Wunderground v.1.15,2013-01-27 06:55:00,
2013-01-27 02:00:00,23.5,19.7,30.46,North,353,0.0,0.0,85,0.00,,,0.01,Wunderground v.1.15,2013-01-27 07:00:00,
2013-01-27 02:05:00,23.3,19.5,30.47,North,353,0.0,0.0,85,0.00,,,0.01,Wunderground v.1.15,2013-01-27 07:05:00,
2013-01-27 02:15:00,23.2,19.4,30.47,North,353,0.0,0.0,85,0.00,,,0.01,Wunderground v.1.15,2013-01-27 07:15:00,
2013-01-27 02:20:00,23.3,19.5,30.47,North,353,0.0,0.0,85,0.00,,,0.01,Wunderground v.1.15,2013-01-27 07:20:00,
2013-01-27 02:25:00,23.3,19.5,30.47,North,353,0.0,0.0,85,0.00,,,0.01,Wunderground v.1.15,2013-01-27 07:25:00,
2013-01-27 02:30:00,23.4,19.6,30.47,North,353,0.0,0.0,85,0.00,,,0.01,Wunderground v.1.15,2013-01-27 07:30:00,
2013-01-27 02:35:00,23.3,19.7,30.46,North,353,0.0,0.0,86,0.00,,,0.01,Wunderground v.1.15,2013-01-27 07:35:00,
2013-01-27 02:40:00,23.2,19.6,30.47,North,353,0.0,0.0,86,0.00,,,0.01,Wunderground v.1.15,2013-01-27 07:40:00,
2013-01-27 02:45:00,23.0,19.4,30.46,North,353,0.0,1.0,86,0.00,,,0.01,Wunderground v.1.15,2013-01-27 07:45:00,
2013-01-27 02:55:00,22.7,19.1,30.47,North,353,0.0,0.0,86,0.00,,,0.01,Wunderground v.1.15,2013-01-27 07:55:00,
2013-01-27 03:00:00,22.5,18.9,30.47,North,353,0.0,0.0,86,0.00,,,0.01,Wunderground v.1.15,2013-01-27 08:00:00,
2013-01-27 03:05:00,22.4,19.1,30.47,North,353,0.0,0.0,87,0.00,,,0.01,Wunderground v.1.15,2013-01-27 08:05:00,
2013-01-27 03:10:00,22.4,19.1,30.46,North,353,0.0,0.0,87,0.00,,,0.01,Wunderground v.1.15,2013-01-27 08:10:00,
2013-01-27 03:15:00,22.4,19.1,30.47,North,353,0.0,0.0,87,0.00,,,0.01,Wunderground v.1.15,2013-01-27 08:15:00,
2013-01-27 03:20:00,22.3,19.0,30.47,North,353,0.0,0.0,87,0.00,,,0.01,Wunderground v.1.15,2013-01-27 08:20:00,
2013-01-27 03:30:00,22.2,18.9,30.48,North,353,0.0,0.0,87,0.00,,,0.01,Wunderground v.1.15,2013-01-27 08:30:00,
2013-01-27 03:35:00,22.3,19.3,30.48,North,353,0.0,1.0,88,0.00,,,0.01,Wunderground v.1.15,2013-01-27 08:35:00,
2013-01-27 03:40:00,22.4,19.4,30.47,North,353,1.0,1.0,88,0.00,,,0.01,Wunderground v.1.15,2013-01-27 08:40:00,
2013-01-27 03:45:00,22.4,19.4,30.47,North,353,0.0,1.0,88,0.00,,,0.01,Wunderground v.1.15,2013-01-27 08:45:00,
2013-01-27 03:50:00,22.4,19.4,30.47,North,353,0.0,0.0,88,0.00,,,0.01,Wunderground v.1.15,2013-01-27 08:50:00,
2013-01-27 03:55:00,22.4,19.6,30.47,North,353,0.0,0.0,89,0.00,,,0.01,Wunderground v.1.15,2013-01-27 08:55:00,
2013-01-27 04:00:00,22.4,19.6,30.47,North,353,0.0,0.0,89,0.00,,,0.01,Wunderground v.1.15,2013-01-27 09:00:00,
2013-01-27 04:10:00,22.6,19.8,30.48,North,353,0.0,0.0,89,0.00,,,0.01,Wunderground v.1.15,2013-01-27 09:10:00,
2013-01-27 04:15:00,22.7,19.9,30.48,North,353,0.0,0.0,89,0.00,,,0.01,Wunderground v.1.15,2013-01-27 09:15:00,
2013-01-27 04:20:00,22.9,20.1,30.48,North,353,0.0,0.0,89,0.00,,,0.01,Wunderground v.1.15,2013-01-27 09:20:00,
2013-01-27 04:25:00,23.0,20.2,30.48,North,353,0.0,0.0,89,0.00,,,0.01,Wunderground v.1.15,2013-01-27 09:25:00,
2013-01-27 04:30:00,23.1,20.3,30.48,North,353,0.0,0.0,89,0.00,,,0.01,Wunderground v.1.15,2013-01-27 09:30:00,
2013-01-27 04:35:00,23.2,20.4,30.48,North,353,0.0,0.0,89,0.00,,,0.01,Wunderground v.1.15,2013-01-27 09:35:00,
2013-01-27 04:45:00,23.4,20.6,30.48,North,353,0.0,0.0,89,0.00,,,0.01,Wunderground v.1.15,2013-01-27 09:45:00,
2013-01-27 04:50:00,23.5,20.7,30.48,North,353,0.0,0.0,89,0.00,,,0.01,Wunderground v.1.15,2013-01-27 09:50:00,
2013-01-27 04:55:00,23.7,21.2,30.48,North,353,0.0,0.0,90,0.00,,,0.01,Wunderground v.1.15,2013-01-27 09:55:00,
2013-01-27 05:00:00,23.8,21.3,30.48,North,353,0.0,0.0,90,0.00,,,0.01,Wunderground v.1.15,2013-01-27 10:00:00,
2013-01-27 05:05:00,23.9,21.4,30.48,North,353,0.0,0.0,90,0.00,,,0.01,Wunderground v.1.15,2013-01-27 10:05:00,
2013-01-27 05:10:00,24.0,21.5,30.48,North,353,0.0,1.0,90,0.00,,,0.01,Wunderground v.1.15,2013-01-27 10:10:00,
2013-01-27 05:20:00,24.4,21.9,30.49,North,353,0.0,0.0,90,0.00,,,0.01,Wunderground v.1.15,2013-01-27 10:20:00,
2013-01-27 05:25:00,24.5,22.0,30.49,North,353,0.0,0.0,90,0.00,,,0.01,Wunderground v.1.15,2013-01-27 10:25:00,
2013-01-27 05:30:00,24.4,21.9,30.48,North,353,0.0,0.0,90,0.00,,,0.01,Wunderground v.1.15,2013-01-27 10:30:00,
2013-01-27 05:35:00,24.5,21.7,30.49,North,353,0.0,0.0,89,0.00,,,0.01,Wunderground v.1.15,2013-01-27 10:35:00,
2013-01-27 05:40:00,24.5,21.7,30.48,North,353,0.0,0.0,89,0.00,,,0.01,Wunderground v.1.15,2013-01-27 10:40:00,
2013-01-27 05:45:00,24.4,21.6,30.49,North,353,0.0,0.0,89,0.00,,,0.01,Wunderground v.1.15,2013-01-27 10:45:00,
2013-01-27 05:50:00,24.3,21.5,30.49,North,353,0.0,1.0,89,0.00,,,0.01,Wunderground v.1.15,2013-01-27 10:50:00,
2013-01-27 06:00:00,24.3,21.5,30.49,North,353,0.0,0.0,89,0.00,,,0.01,Wunderground v.1.15,2013-01-27 11:00:00,
2013-01-27 06:05:00,24.3,21.5,30.49,North,353,0.0,0.0,89,0.00,,,0.01,Wunderground v.1.15,2013-01-27 11:05:00,
2013-01-27 06:10:00,24.2,21.4,30.50,North,353,0.0,0.0,89,0.00,,,0.01,Wunderground v.1.15,2013-01-27 11:10:00,
2013-01-27 06:15:00,24.2,21.4,30.50,North,353,0.0,0.0,89,0.00,,,0.01,Wunderground v.1.15,2013-01-27 11:15:00,
2013-01-27 06:20:00,24.2,21.4,30.51,North,353,0.0,0.0,89,0.00,,,0.01,Wunderground v.1.15,2013-01-27 11:20:00,
2013-01-27 06:25:00,24.1,21.3,30.50,North,353,0.0,0.0,89,0.00,,,0.01,Wunderground v.1.15,2013-01-27 11:25:00,
2013-01-27 06:35:00,24.2,21.4,30.51,North,353,0.0,0.0,89,0.00,,,0.01,Wunderground v.1.15,2013-01-27 11:35:00,
2013-01-27 06:40:00,24.3,21.5,30.51,North,353,0.0,0.0,89,0.00,,,0.01,Wunderground v.1.15,2013-01-27 11:40:00,
2013-01-27 06:45:00,24.3,21.5,30.51,North,353,0.0,0.0,89,0.00,,,0.01,Wunderground v.1.15,2013-01-27 11:45:00,
2013-01-27 06:50:00,24.4,21.6,30.51,North,353,0.0,0.0,89,0.00,,,0.01,Wunderground v.1.15,2013-01-27 11:50:00,
2013-01-27 06:55:00,24.5,21.7,30.52,North,353,0.0,0.0,89,0.00,,,0.01,Wunderground v.1.15,2013-01-27 11:55:00,
2013-01-27 07:00:00,24.6,21.8,30.52,North,353,0.0,0.0,89,0.00,,,0.01,Wunderground v.1.15,2013-01-27 12:00:00,
2013-01-27 07:05:00,24.7,21.9,30.52,North,353,0.0,0.0,89,0.00,,,0.01,Wunderground v.1.15,2013-01-27 12:05:00,
2013-01-27 07:15:00,24.7,21.9,30.53,North,353,0.0,1.0,89,0.00,,,0.01,Wunderground v.1.15,2013-01-27 12:15:00,
2013-01-27 07:20:00,24.7,21.9,30.53,North,353,1.0,1.0,89,0.00,,,0.01,Wunderground v.1.15,2013-01-27 12:20:00,
2013-01-27 07:25:00,24.7,21.9,30.53,North,353,0.0,1.0,89,0.00,,,0.01,Wunderground v.1.15,2013-01-27 12:25:00,
2013-01-27 07:30:00,24.7,21.9,30.53,North,353,0.0,0.0,89,0.00,,,0.01,Wunderground v.1.15,2013-01-27 12:30:00,
2013-01-27 07:35:00,24.6,21.8,30.53,North,353,1.0,1.0,89,0.00,,,0.01,Wunderground v.1.15,2013-01-27 12:35:00,
2013-01-27 07:40:00,24.5,21.7,30.54,North,353,1.0,1.0,89,0.00,,,0.01,Wunderground v.1.15,2013-01-27 12:40:00,
2013-01-27 07:50:00,24.4,21.4,30.54,North,353,1.0,1.0,88,0.00,,,0.01,Wunderground v.1.15,2013-01-27 12:50:00,
2013-01-27 07:55:00,24.4,21.6,30.55,North,353,0.0,1.0,89,0.00,,,0.01,Wunderground v.1.15,2013-01-27 12:55:00,
2013-01-27 08:00:00,24.4,21.4,30.55,North,353,0.0,0.0,88,0.00,,,0.01,Wunderground v.1.15,2013-01-27 13:00:00,
2013-01-27 08:05:00,24.3,21.3,30.55,North,353,0.0,0.0,88,0.00,,,0.01,Wunderground v.1.15,2013-01-27 13:05:00,
2013-01-27 08:10:00,24.3,21.3,30.55,North,353,0.0,0.0,88,0.00,,,0.01,Wunderground v.1.15,2013-01-27 13:10:00,
2013-01-27 08:15:00,24.3,21.3,30.55,North,353,0.0,0.0,88,0.00,,,0.01,Wunderground v.1.15,2013-01-27 13:15:00,
2013-01-27 08:25:00,25.6,22.5,30.56,North,353,0.0,0.0,88,0.00,,,0.01,Wunderground v.1.15,2013-01-27 13:25:00,
2013-01-27 08:30:00,26.6,23.3,30.56,North,353,0.0,2.0,87,0.00,,,0.01,Wunderground v.1.15,2013-01-27 13:30:00,
2013-01-27 08:35:00,27.3,23.4,30.56,North,353,1.0,2.0,85,0.00,,,0.01,Wunderground v.1.15,2013-01-27 13:35:00,
2013-01-27 08:40:00,27.6,23.1,30.56,North,351,1.0,1.0,83,0.00,,,0.01,Wunderground v.1.15,2013-01-27 13:40:00,
2013-01-27 08:45:00,27.8,22.7,30.57,NW,318,1.0,2.0,81,0.00,,,0.01,Wunderground v.1.15,2013-01-27 13:45:00,
2013-01-27 08:50:00,28.0,22.9,30.57,North,359,2.0,2.0,81,0.00,,,0.01,Wunderground v.1.15,2013-01-27 13:50:00,
2013-01-27 08:55:00,28.1,23.3,30.57,NNW,332,1.0,2.0,82,0.00,,,0.01,Wunderground v.1.15,2013-01-27 13:55:00,
2013-01-27 09:05:00,28.5,23.4,30.58,NW,313,2.0,2.0,81,0.00,,,0.01,Wunderground v.1.15,2013-01-27 14:05:00,
2013-01-27 09:10:00,28.7,23.3,30.58,NW,321,1.0,2.0,80,0.00,,,0.01,Wunderground v.1.15,2013-01-27 14:10:00,
2013-01-27 09:15:00,29.0,23.6,30.58,NW,321,1.0,2.0,80,0.00,,,0.01,Wunderground v.1.15,2013-01-27 14:15:00,
2013-01-27 09:20:00,29.2,23.5,30.58,North,353,1.0,5.0,79,0.00,,,0.01,Wunderground v.1.15,2013-01-27 14:20:00,
2013-01-27 09:25:00,29.3,23.3,30.59,NNW,328,2.0,5.0,78,0.00,,,0.01,Wunderground v.1.15,2013-01-27 14:25:00,
2013-01-27 09:30:00,29.5,23.2,30.59,NNW,332,2.0,2.0,77,0.00,,,0.01,Wunderground v.1.15,2013-01-27 14:30:00,
2013-01-27 09:40:00,30.0,22.4,30.59,North,355,3.0,3.0,73,0.00,,,0.01,Wunderground v.1.15,2013-01-27 14:40:00,
2013-01-27 09:45:00,30.0,21.7,30.59,North,3,2.0,3.0,71,0.00,,,0.01,Wunderground v.1.15,2013-01-27 14:45:00,
2013-01-27 09:50:00,30.1,22.2,30.59,NE,49,1.0,1.0,72,0.00,,,0.01,Wunderground v.1.15,2013-01-27 14:50:00,
2013-01-27 09:55:00,30.2,23.5,30.59,NNW,340,1.0,1.0,76,0.00,,,0.01,Wunderground v.1.15,2013-01-27 14:55:00,
2013-01-27 10:00:00,30.4,22.1,30.59,NNE,22,1.0,1.0,71,0.00,,,0.01,Wunderground v.1.15,2013-01-27 15:00:00,
2013-01-27 10:05:00,30.5,22.2,30.59,North,7,1.0,1.0,71,0.00,,,0.01,Wunderground v.1.15,2013-01-27 15:05:00,
2013-01-27 10:10:00,30.6,22.3,30.59,North,9,1.0,1.0,71,0.00,,,0.01,Wunderground v.1.15,2013-01-27 15:10:00,
2013-01-27 10:20:00,30.8,22.2,30.59,NNE,23,1.0,1.0,70,0.00,,,0.01,Wunderground v.1.15,2013-01-27 15:20:00,
2013-01-27 10:25:00,30.9,22.3,30.59,NNE,30,1.0,1.0,70,0.00,,,0.01,Wunderground v.1.15,2013-01-27 15:25:00,
2013-01-27 10:30:00,31.0,22.4,30.60,NNE,30,1.0,1.0,70,0.00,,,0.01,Wunderground v.1.15,2013-01-27 15:30:00,
2013-01-27 10:35:00,31.0,22.0,30.60,NNE,32,1.0,1.0,69,0.00,,,0.01,Wunderground v.1.15,2013-01-27 15:35:00,
2013-01-27 10:40:00,30.9,22.6,30.60,NE,48,1.0,3.0,71,0.00,,,0.01,Wunderground v.1.15,2013-01-27 15:40:00,
2013-01-27 10:50:00,31.1,22.8,30.59,NE,48,2.0,2.0,71,0.00,,,0.01,Wunderground v.1.15,2013-01-27 15:50:00,
2013-01-27 10:55:00,31.1,22.5,30.59,ENE,63,2.0,3.0,70,0.00,,,0.01,Wunderground v.1.15,2013-01-27 15:55:00,
2013-01-27 11:00:00,30.8,21.8,30.59,ENE,63,2.0,3.0,69,0.00,,,0.01,Wunderground v.1.15,2013-01-27 16:00:00,
2013-01-27 11:05:00,30.8,22.5,30.59,ENE,64,2.0,3.0,71,0.00,,,0.01,Wunderground v.1.15,2013-01-27 16:05:00,
2013-01-27 11:10:00,30.8,22.2,30.59,ENE,64,2.0,3.0,70,0.00,,,0.01,Wunderground v.1.15,2013-01-27 16:10:00,
2013-01-27 11:15:00,31.0,22.7,30.59,East,89,2.0,3.0,71,0.00,,,0.01,Wunderground v.1.15,2013-01-27 16:15:00,
2013-01-27 11:20:00,30.9,22.9,30.59,ENE,70,3.0,3.0,72,0.00,,,0.01,Wunderground v.1.15,2013-01-27 16:20:00,
2013-01-27 11:29:00,31.3,23.0,30.58,East,100,3.0,3.0,71,0.00,,,0.01,Wunderground v.1.15,2013-01-27 16:29:00,
2013-01-27 11:35:00,31.3,23.0,30.58,ENE,67,3.0,4.0,71,0.00,,,0.01,Wunderground v.1.15,2013-01-27 16:35:00,
2013-01-27 11:40:00,31.3,23.0,30.57,East,84,3.0,3.0,71,0.00,,,0.01,Wunderground v.1.15,2013-01-27 16:40:00,
2013-01-27 11:45:00,31.7,23.0,30.57,East,83,3.0,3.0,70,0.00,,,0.01,Wunderground v.1.15,2013-01-27 16:45:00,
2013-01-27 11:50:00,31.9,23.6,30.57,ENE,75,2.0,2.0,71,0.00,,,0.01,Wunderground v.1.15,2013-01-27 16:50:00,
2013-01-27 11:55:00,32.0,23.7,30.56,ESE,109,2.0,3.0,71,0.00,,,0.01,Wunderground v.1.15,2013-01-27 16:55:00,
2013-01-27 12:04:00,32.2,23.8,30.56,East,97,2.0,2.0,71,0.00,,,0.01,Wunderground v.1.15,2013-01-27 17:04:00,
2013-01-27 12:10:00,31.8,23.1,30.56,East,94,2.0,3.0,70,0.00,,,0.01,Wunderground v.1.15,2013-01-27 17:10:00,
2013-01-27 12:15:00,31.7,23.0,30.56,ESE,108,3.0,3.0,70,0.00,,,0.01,Wunderground v.1.15,2013-01-27 17:15:00,
2013-01-27 12:20:00,31.6,23.3,30.56,ENE,59,3.0,4.0,71,0.00,,,0.01,Wunderground v.1.15,2013-01-27 17:20:00,
2013-01-27 12:25:00,31.7,23.0,30.56,ENE,76,3.0,4.0,70,0.00,,,0.01,Wunderground v.1.15,2013-01-27 17:25:00,
2013-01-27 12:30:00,32.6,23.9,30.55,ESE,117,2.0,2.0,70,0.00,,,0.01,Wunderground v.1.15,2013-01-27 17:30:00,
2013-01-27 12:35:00,33.0,23.9,30.55,SE,128,2.0,3.0,69,0.00,,,0.01,Wunderground v.1.15,2013-01-27 17:35:00,
2013-01-27 12:40:00,33.1,23.7,30.55,SE,136,3.0,3.0,68,0.00,,,0.01,Wunderground v.1.15,2013-01-27 17:40:00,
2013-01-27 12:50:00,32.6,22.8,30.54,SE,134,4.0,4.0,67,0.00,,,0.01,Wunderground v.1.15,2013-01-27 17:50:00,
2013-01-27 12:55:00,33.1,23.7,30.54,SE,136,4.0,4.0,68,0.00,,,0.01,Wunderground v.1.15,2013-01-27 17:55:00,
2013-01-27 13:00:00,32.7,22.9,30.54,SE,126,4.0,4.0,67,0.00,,,0.01,Wunderground v.1.15,2013-01-27 18:00:00,
2013-01-27 13:05:00,32.9,23.5,30.53,SE,136,4.0,4.0,68,0.00,,,0.01,Wunderground v.1.15,2013-01-27 18:05:00,
2013-01-27 13:10:00,33.0,23.6,30.53,SE,134,4.0,4.0,68,0.00,,,0.01,Wunderground v.1.15,2013-01-27 18:10:00,
2013-01-27 13:15:00,33.3,24.2,30.53,ESE,117,3.0,4.0,69,0.00,,,0.01,Wunderground v.1.15,2013-01-27 18:15:00,
2013-01-27 13:25:00,33.4,23.3,30.52,SE,136,4.0,4.0,66,0.00,,,0.01,Wunderground v.1.15,2013-01-27 18:25:00,
2013-01-27 13:30:00,33.7,24.3,30.52,SE,136,3.0,4.0,68,0.00,,,0.01,Wunderground v.1.15,2013-01-27 18:30:00,
2013-01-27 13:35:00,34.1,24.6,30.52,ESE,123,3.0,4.0,68,0.00,,,0.01,Wunderground v.1.15,2013-01-27 18:35:00,
2013-01-27 13:40:00,33.9,24.8,30.52,South,171,3.0,3.0,69,0.00,,,0.01,Wunderground v.1.15,2013-01-27 18:40:00,
2013-01-27 13:45:00,33.5,24.4,30.52,SE,142,3.0,3.0,69,0.00,,,0.01,Wunderground v.1.15,2013-01-27 18:45:00,
2013-01-27 13:50:00,33.5,24.4,30.52,SE,130,3.0,3.0,69,0.00,,,0.01,Wunderground v.1.15,2013-01-27 18:50:00,
2013-01-27 13:55:00,33.1,24.0,30.52,SSE,148,3.0,3.0,69,0.00,,,0.01,Wunderground v.1.15,2013-01-27 18:55:00,
2013-01-27 14:05:00,33.3,24.2,30.52,SE,143,4.0,5.0,69,0.00,,,0.01,Wunderground v.1.15,2013-01-27 19:05:00,
2013-01-27 14:10:00,33.5,24.4,30.52,SE,140,4.0,4.0,69,0.00,,,0.01,Wunderground v.1.15,2013-01-27 19:10:00,
2013-01-27 14:15:00,33.4,24.3,30.52,SE,144,4.0,5.0,69,0.00,,,0.01,Wunderground v.1.15,2013-01-27 19:15:00,
2013-01-27 14:20:00,33.4,24.0,30.52,SE,145,4.0,4.0,68,0.00,,,0.01,Wunderground v.1.15,2013-01-27 19:20:00,
2013-01-27 14:25:00,33.4,23.6,30.52,SE,126,4.0,4.0,67,0.00,,,0.01,Wunderground v.1.15,2013-01-27 19:25:00,
2013-01-27 14:30:00,33.6,23.8,30.52,SE,135,4.0,4.0,67,0.00,,,0.01,Wunderground v.1.15,2013-01-27 19:30:00,
2013-01-27 14:40:00,33.4,23.6,30.51,SE,130,4.0,5.0,67,0.00,,,0.01,Wunderground v.1.15,2013-01-27 19:40:00,
2013-01-27 14:45:00,33.4,23.6,30.51,SE,138,4.0,5.0,67,0.00,,,0.01,Wunderground v.1.15,2013-01-27 19:45:00,
2013-01-27 14:50:00,33.4,24.0,30.51,SE,140,4.0,4.0,68,0.00,,,0.01,Wunderground v.1.15,2013-01-27 19:50:00,
2013-01-27 14:55:00,33.4,23.6,30.51,SSE,154,4.0,4.0,67,0.00,,,0.01,Wunderground v.1.15,2013-01-27 19:55:00,
2013-01-27 15:00:00,33.3,23.9,30.51,SSE,152,4.0,4.0,68,0.00,,,0.01,Wunderground v.1.15,2013-01-27 20:00:00,
2013-01-27 15:05:00,33.4,23.6,30.51,SE,131,4.0,4.0,67,0.00,,,0.01,Wunderground v.1.15,2013-01-27 20:05:00,
2013-01-27 15:10:00,33.5,23.7,30.51,SE,137,3.0,3.0,67,0.00,,,0.01,Wunderground v.1.15,2013-01-27 20:10:00,
2013-01-27 15:20:00,33.4,24.0,30.51,SSE,147,3.0,3.0,68,0.00,,,0.01,Wunderground v.1.15,2013-01-27 20:20:00,
2013-01-27 15:25:00,33.5,24.1,30.51,SSE,155,3.0,3.0,68,0.00,,,0.01,Wunderground v.1.15,2013-01-27 20:25:00,
2013-01-27 15:30:00,33.5,23.7,30.51,SE,138,3.0,5.0,67,0.00,,,0.01,Wunderground v.1.15,2013-01-27 20:30:00,
2013-01-27 15:35:00,33.5,24.4,30.51,SSE,160,3.0,5.0,69,0.00,,,0.01,Wunderground v.1.15,2013-01-27 20:35:00,
2013-01-27 15:40:00,33.5,24.4,30.50,SE,139,3.0,3.0,69,0.00,,,0.01,Wunderground v.1.15,2013-01-27 20:40:00,
2013-01-27 15:45:00,33.1,23.7,30.50,SE,134,3.0,4.0,68,0.00,,,0.01,Wunderground v.1.15,2013-01-27 20:45:00,
2013-01-27 15:55:00,33.0,24.3,30.50,SE,140,2.0,3.0,70,0.00,,,0.01,Wunderground v.1.15,2013-01-27 20:55:00,
2013-01-27 16:00:00,32.9,24.2,30.50,SSE,151,2.0,3.0,70,0.00,,,0.01,Wunderground v.1.15,2013-01-27 21:00:00,
2013-01-27 16:05:00,33.0,25.0,30.50,SSE,152,3.0,4.0,72,0.00,,,0.01,Wunderground v.1.15,2013-01-27 21:05:00,
2013-01-27 16:10:00,33.1,24.7,30.50,SE,138,4.0,4.0,71,0.00,,,0.01,Wunderground v.1.15,2013-01-27 21:10:00,
2013-01-27 16:15:00,33.2,24.8,30.50,SSE,157,3.0,4.0,71,0.00,,,0.01,Wunderground v.1.15,2013-01-27 21:15:00,
2013-01-27 16:20:00,33.2,24.1,30.50,South,175,3.0,3.0,69,0.00,,,0.01,Wunderground v.1.15,2013-01-27 21:20:00,
2013-01-27 16:30:00,33.4,24.7,30.50,SSW,203,2.0,2.0,70,0.00,,,0.01,Wunderground v.1.15,2013-01-27 21:30:00,
2013-01-27 16:35:00,33.4,25.0,30.51,SE,131,2.0,2.0,71,0.00,,,0.01,Wunderground v.1.15,2013-01-27 21:35:00,
2013-01-27 16:40:00,33.2,24.5,30.51,South,186,2.0,4.0,70,0.00,,,0.01,Wunderground v.1.15,2013-01-27 21:40:00,
2013-01-27 16:45:00,33.0,24.6,30.51,South,171,3.0,4.0,71,0.00,,,0.01,Wunderground v.1.15,2013-01-27 21:45:00,
2013-01-27 16:50:00,32.8,24.4,30.51,South,178,2.0,2.0,71,0.00,,,0.01,Wunderground v.1.15,2013-01-27 21:50:00,
2013-01-27 16:55:00,32.5,24.5,30.51,South,189,2.0,2.0,72,0.00,,,0.01,Wunderground v.1.15,2013-01-27 21:55:00,
2013-01-27 17:00:00,32.4,24.4,30.51,South,185,2.0,2.0,72,0.00,,,0.01,Wunderground v.1.15,2013-01-27 22:00:00,
2013-01-27 17:10:00,32.0,24.3,30.51,SSE,153,1.0,3.0,73,0.00,,,0.01,Wunderground v.1.15,2013-01-27 22:10:00,
2013-01-27 17:15:00,31.9,24.6,30.51,SSE,161,1.0,3.0,74,0.00,,,0.01,Wunderground v.1.15,2013-01-27 22:15:00,
2013-01-27 17:20:00,31.5,24.2,30.51,SSE,160,1.0,1.0,74,0.00,,,0.01,Wunderground v.1.15,2013-01-27 22:20:00,
2013-01-27 17:25:00,31.6,24.6,30.51,South,182,1.0,1.0,75,0.00,,,0.01,Wunderground v.1.15,2013-01-27 22:25:00,
2013-01-27 17:30:00,31.8,24.8,30.51,SSW,193,1.0,1.0,75,0.00,,,0.01,Wunderground v.1.15,2013-01-27 22:30:00,
2013-01-27 17:35:00,31.7,24.7,30.51,SSE,151,1.0,1.0,75,0.00,,,0.01,Wunderground v.1.15,2013-01-27 22:35:00,
2013-01-27 17:45:00,31.5,24.8,30.52,SSE,151,1.0,1.0,76,0.00,,,0.01,Wunderground v.1.15,2013-01-27 22:45:00,
2013-01-27 17:50:00,31.1,24.4,30.52,SSE,156,1.0,2.0,76,0.00,,,0.01,Wunderground v.1.15,2013-01-27 22:50:00,
2013-01-27 17:55:00,31.0,24.6,30.52,South,182,1.0,4.0,77,0.00,,,0.01,Wunderground v.1.15,2013-01-27 22:55:00,
2013-01-27 18:00:00,31.3,25.2,30.51,SSE,157,1.0,1.0,78,0.00,,,0.01,Wunderground v.1.15,2013-01-27 23:00:00,
2013-01-27 18:05:00,31.4,25.3,30.52,South,181,1.0,2.0,78,0.00,,,0.01,Wunderground v.1.15,2013-01-27 23:05:00,
2013-01-27 18:10:00,31.3,25.2,30.52,South,181,1.0,1.0,78,0.00,,,0.01,Wunderground v.1.15,2013-01-27 23:10:00,
2013-01-27 18:20:00,31.3,25.2,30.52,South,171,2.0,2.0,78,0.00,,,0.01,Wunderground v.1.15,2013-01-27 23:20:00,
2013-01-27 18:25:00,31.5,25.4,30.52,South,178,2.0,2.0,78,0.00,,,0.01,Wunderground v.1.15,2013-01-27 23:25:00,
2013-01-27 18:30:00,31.5,25.4,30.52,SSE,159,1.0,1.0,78,0.00,,,0.01,Wunderground v.1.15,2013-01-27 23:30:00,
2013-01-27 18:35:00,31.6,25.8,30.52,South,180,2.0,2.0,79,0.00,,,0.01,Wunderground v.1.15,2013-01-27 23:35:00,
2013-01-27 18:40:00,31.8,26.3,30.52,SSE,167,2.0,4.0,80,0.00,,,0.01,Wunderground v.1.15,2013-01-27 23:40:00,
2013-01-27 18:45:00,32.0,26.5,30.52,South,173,3.0,4.0,80,0.00,,,0.01,Wunderground v.1.15,2013-01-27 23:45:00,
2013-01-27 18:50:00,32.2,26.7,30.52,SSW,193,3.0,3.0,80,0.00,,,0.01,Wunderground v.1.15,2013-01-27 23:50:00,
2013-01-27 18:59:00,32.1,26.3,30.52,South,183,2.0,2.0,79,0.00,,,0.01,Wunderground v.1.15,2013-01-27 23:59:00,
2013-01-27 19:05:00,32.1,26.3,30.52,South,183,2.0,2.0,79,0.00,,,0.01,Wunderground v.1.15,2013-01-28 00:05:00,
2013-01-27 19:10:00,31.9,26.1,30.52,South,183,2.0,2.0,79,0.00,,,0.01,Wunderground v.1.15,2013-01-28 00:10:00,
2013-01-27 19:15:00,31.5,25.7,30.52,South,183,1.0,2.0,79,0.00,,,0.01,Wunderground v.1.15,2013-01-28 00:15:00,
2013-01-27 19:20:00,31.5,26.0,30.53,South,188,1.0,3.0,80,0.00,,,0.01,Wunderground v.1.15,2013-01-28 00:20:00,
2013-01-27 19:25:00,31.6,26.1,30.52,SSW,198,2.0,3.0,80,0.00,,,0.01,Wunderground v.1.15,2013-01-28 00:25:00,
2013-01-27 19:35:00,31.6,26.4,30.51,SSE,165,2.0,2.0,81,0.00,,,0.01,Wunderground v.1.15,2013-01-28 00:35:00,
2013-01-27 19:45:00,31.7,26.5,30.51,South,188,2.0,4.0,81,0.00,,,0.01,Wunderground v.1.15,2013-01-28 00:45:00,
2013-01-27 19:50:00,31.3,26.1,30.52,South,188,1.0,1.0,81,0.00,,,0.01,Wunderground v.1.15,2013-01-28 00:50:00,
2013-01-27 19:55:00,31.3,26.1,30.52,South,188,0.0,1.0,81,0.00,,,0.01,Wunderground v.1.15,2013-01-28 00:55:00,
2013-01-27 20:00:00,31.2,26.0,30.52,South,188,0.0,0.0,81,0.00,,,0.01,Wunderground v.1.15,2013-01-28 01:00:00,
2013-01-27 20:05:00,30.8,26.0,30.51,South,188,0.0,0.0,82,0.00,,,0.01,Wunderground v.1.15,2013-01-28 01:05:00,
2013-01-27 20:10:00,30.6,25.8,30.51,South,188,0.0,0.0,82,0.00,,,0.01,Wunderground v.1.15,2013-01-28 01:10:00,
2013-01-27 20:20:00,30.0,25.5,30.51,South,188,0.0,0.0,83,0.00,,,0.01,Wunderground v.1.15,2013-01-28 01:20:00,
2013-01-27 20:25:00,30.1,25.8,30.51,South,188,0.0,0.0,84,0.00,,,0.01,Wunderground v.1.15,2013-01-28 01:25:00,
2013-01-27 20:30:00,30.5,26.2,30.50,South,188,0.0,0.0,84,0.00,,,0.01,Wunderground v.1.15,2013-01-28 01:30:00,
2013-01-27 20:35:00,31.1,26.8,30.50,South,188,0.0,0.0,84,0.00,,,0.01,Wunderground v.1.15,2013-01-28 01:35:00,
2013-01-27 20:40:00,30.8,26.2,30.51,South,188,0.0,0.0,83,0.00,,,0.01,Wunderground v.1.15,2013-01-28 01:40:00,
2013-01-27 20:45:00,30.7,26.1,30.51,South,188,0.0,0.0,83,0.00,,,0.01,Wunderground v.1.15,2013-01-28 01:45:00,
2013-01-27 20:50:00,30.7,26.1,30.50,South,188,0.0,0.0,83,0.00,,,0.01,Wunderground v.1.15,2013-01-28 01:50:00,
2013-01-27 21:00:00,30.5,26.0,30.50,South,188,0.0,0.0,83,0.00,,,0.01,Wunderground v.1.15,2013-01-28 02:00:00,
2013-01-27 21:05:00,30.3,25.8,30.51,South,188,0.0,0.0,83,0.00,,,0.01,Wunderground v.1.15,2013-01-28 02:05:00,
2013-01-27 21:10:00,30.2,25.9,30.51,South,188,0.0,0.0,84,0.00,,,0.00,Wunderground v.1.15,2013-01-28 02:10:00,
2013-01-27 21:15:00,30.6,26.1,30.51,South,188,0.0,0.0,83,0.00,,,0.00,Wunderground v.1.15,2013-01-28 02:15:00,
2013-01-27 21:20:00,30.6,26.1,30.52,South,188,0.0,0.0,83,0.00,,,0.00,Wunderground v.1.15,2013-01-28 02:20:00,
2013-01-27 21:25:00,30.3,25.8,30.52,South,188,0.0,0.0,83,0.00,,,0.00,Wunderground v.1.15,2013-01-28 02:25:00,
2013-01-27 21:35:00,28.9,24.7,30.52,South,188,0.0,0.0,84,0.00,,,0.00,Wunderground v.1.15,2013-01-28 02:35:00,
2013-01-27 21:40:00,28.7,24.8,30.52,South,188,0.0,0.0,85,0.00,,,0.00,Wunderground v.1.15,2013-01-28 02:40:00,
2013-01-27 21:45:00,28.6,24.9,30.52,South,188,0.0,0.0,86,0.00,,,0.00,Wunderground v.1.15,2013-01-28 02:45:00,
2013-01-27 21:50:00,28.7,25.3,30.52,South,188,0.0,0.0,87,0.00,,,0.00,Wunderground v.1.15,2013-01-28 02:50:00,
2013-01-27 21:55:00,29.2,26.1,30.51,South,188,0.0,0.0,88,0.00,,,0.00,Wunderground v.1.15,2013-01-28 02:55:00,
2013-01-27 22:00:00,29.4,26.0,30.51,South,188,0.0,0.0,87,0.00,,,0.00,Wunderground v.1.15,2013-01-28 03:00:00,
2013-01-27 22:10:00,29.7,26.0,30.50,South,188,0.0,0.0,86,0.00,,,0.00,Wunderground v.1.15,2013-01-28 03:10:00,
2013-01-27 22:15:00,29.6,25.9,30.50,South,188,0.0,0.0,86,0.00,,,0.00,Wunderground v.1.15,2013-01-28 03:15:00,
2013-01-27 22:20:00,29.2,25.5,30.50,South,188,0.0,0.0,86,0.00,,,0.00,Wunderground v.1.15,2013-01-28 03:20:00,
2013-01-27 22:25:00,29.0,25.3,30.50,South,188,0.0,0.0,86,0.00,,,0.00,Wunderground v.1.15,2013-01-28 03:25:00,
2013-01-27 22:30:00,29.2,25.8,30.50,South,188,0.0,1.0,87,0.00,,,0.00,Wunderground v.1.15,2013-01-28 03:30:00,
2013-01-27 22:35:00,29.1,25.7,30.50,South,188,0.0,1.0,87,0.00,,,0.00,Wunderground v.1.15,2013-01-28 03:35:00,
2013-01-27 22:40:00,28.9,25.5,30.50,South,188,0.0,0.0,87,0.00,,,0.00,Wunderground v.1.15,2013-01-28 03:40:00,
2013-01-27 22:50:00,29.4,26.0,30.49,South,188,0.0,1.0,87,0.00,,,0.00,Wunderground v.1.15,2013-01-28 03:50:00,
2013-01-27 22:55:00,29.4,26.0,30.49,South,188,1.0,1.0,87,0.00,,,0.00,Wunderground v.1.15,2013-01-28 03:55:00,
2013-01-27 23:00:00,29.2,25.5,30.49,SSE,161,1.0,2.0,86,0.00,,,0.00,Wunderground v.1.15,2013-01-28 04:00:00,
2013-01-27 23:05:00,29.7,25.7,30.49,South,184,1.0,2.0,85,0.00,,,0.00,Wunderground v.1.15,2013-01-28 04:05:00,
2013-01-27 23:10:00,29.6,25.1,30.49,South,183,1.0,1.0,83,0.00,,,0.00,Wunderground v.1.15,2013-01-28 04:10:00,
2013-01-27 23:15:00,29.6,25.1,30.50,South,183,0.0,1.0,83,0.00,,,0.00,Wunderground v.1.15,2013-01-28 04:15:00,
2013-01-27 23:25:00,30.0,24.9,30.50,South,183,0.0,0.0,81,0.00,,,0.00,Wunderground v.1.15,2013-01-28 04:25:00,
2013-01-27 23:30:00,29.9,24.8,30.50,South,183,0.0,0.0,81,0.00,,,0.00,Wunderground v.1.15,2013-01-28 04:30:00,
2013-01-27 23:35:00,29.8,24.7,30.50,South,183,0.0,0.0,81,0.00,,,0.00,Wunderground v.1.15,2013-01-28 04:35:00,
2013-01-27 23:40:00,29.8,24.7,30.50,South,183,0.0,0.0,81,0.00,,,0.00,Wunderground v.1.15,2013-01-28 04:40:00,
2013-01-27 23:45:00,29.8,24.7,30.50,South,183,0.0,0.0,81,0.00,,,0.00,Wunderground v.1.15,2013-01-28 04:45:00,
2013-01-27 23:50:00,29.8,24.7,30.51,South,183,0.0,1.0,81,0.00,,,0.00,Wunderground v.1.15,2013-01-28 04:50:00,
2013-01-27 23:55:00,30.0,24.6,30.51,South,183,0.0,2.0,80,0.00,,,0.00,Wunderground v.1.15,2013-01-28 04:55:00,